sensor_id;sensor_type;location;lat;lon;timestamp;temperature;humidity
73572;DHT22;61854;48.510;-2.770;2023-05-01T00:01:19;14.00;97.40
73572;DHT22;61854;48.510;-2.770;2023-05-01T00:03:44;14.00;97.30
73572;DHT22;61854;48.510;-2.770;2023-05-01T00:06:10;14.00;97.20
73572;DHT22;61854;48.510;-2.770;2023-05-01T00:08:36;14.00;96.90
73572;DHT22;61854;48.510;-2.770;2023-05-01T00:11:02;14.10;96.70
73572;DHT22;61854;48.510;-2.770;2023-05-01T00:13:28;14.10;96.50
73572;DHT22;61854;48.510;-2.770;2023-05-01T00:15:53;14.00;96.50
73572;DHT22;61854;48.510;-2.770;2023-05-01T00:18:20;14.00;96.40
73572;DHT22;61854;48.510;-2.770;2023-05-01T00:20:45;14.00;96.40
73572;DHT22;61854;48.510;-2.770;2023-05-01T00:23:11;14.00;96.30
73572;DHT22;61854;48.510;-2.770;2023-05-01T00:25:37;14.00;96.20
73572;DHT22;61854;48.510;-2.770;2023-05-01T00:28:03;13.90;95.80
73572;DHT22;61854;48.510;-2.770;2023-05-01T00:30:31;13.80;96.00
73572;DHT22;61854;48.510;-2.770;2023-05-01T00:32:57;13.80;96.00
73572;DHT22;61854;48.510;-2.770;2023-05-01T00:35:23;13.80;96.00
73572;DHT22;61854;48.510;-2.770;2023-05-01T00:37:49;13.80;96.10
73572;DHT22;61854;48.510;-2.770;2023-05-01T00:40:15;13.70;96.00
73572;DHT22;61854;48.510;-2.770;2023-05-01T00:42:40;13.70;95.40
73572;DHT22;61854;48.510;-2.770;2023-05-01T00:45:06;13.70;95.10
73572;DHT22;61854;48.510;-2.770;2023-05-01T00:47:34;13.70;94.80
73572;DHT22;61854;48.510;-2.770;2023-05-01T00:49:59;13.70;94.60
73572;DHT22;61854;48.510;-2.770;2023-05-01T00:52:25;13.70;94.50
73572;DHT22;61854;48.510;-2.770;2023-05-01T00:54:50;13.70;94.00
73572;DHT22;61854;48.510;-2.770;2023-05-01T00:57:18;13.70;93.80
73572;DHT22;61854;48.510;-2.770;2023-05-01T00:59:43;13.60;93.50
73572;DHT22;61854;48.510;-2.770;2023-05-01T01:02:09;13.60;93.60
73572;DHT22;61854;48.510;-2.770;2023-05-01T01:04:37;13.60;93.50
73572;DHT22;61854;48.510;-2.770;2023-05-01T01:07:07;13.60;93.50
73572;DHT22;61854;48.510;-2.770;2023-05-01T01:12:53;13.50;93.40
73572;DHT22;61854;48.510;-2.770;2023-05-01T01:15:15;13.40;93.40
73572;DHT22;61854;48.510;-2.770;2023-05-01T01:22:52;13.20;93.80
73572;DHT22;61854;48.510;-2.770;2023-05-01T01:25:57;13.20;94.00
73572;DHT22;61854;48.510;-2.770;2023-05-01T01:28:22;13.10;94.20
73572;DHT22;61854;48.510;-2.770;2023-05-01T01:33:32;13.00;94.60
73572;DHT22;61854;48.510;-2.770;2023-05-01T01:36:01;13.00;94.80
73572;DHT22;61854;48.510;-2.770;2023-05-01T01:38:45;12.90;94.90
73572;DHT22;61854;48.510;-2.770;2023-05-01T01:41:13;12.90;94.80
73572;DHT22;61854;48.510;-2.770;2023-05-01T01:43:46;12.90;95.00
73572;DHT22;61854;48.510;-2.770;2023-05-01T01:46:15;12.90;94.90
73572;DHT22;61854;48.510;-2.770;2023-05-01T01:48:42;12.90;94.90
73572;DHT22;61854;48.510;-2.770;2023-05-01T01:51:14;12.80;94.90
73572;DHT22;61854;48.510;-2.770;2023-05-01T01:53:40;12.80;95.00
73572;DHT22;61854;48.510;-2.770;2023-05-01T01:56:08;12.70;95.10
73572;DHT22;61854;48.510;-2.770;2023-05-01T01:58:35;12.70;95.30
73572;DHT22;61854;48.510;-2.770;2023-05-01T02:01:01;12.70;95.40
73572;DHT22;61854;48.510;-2.770;2023-05-01T02:03:27;12.70;95.40
73572;DHT22;61854;48.510;-2.770;2023-05-01T02:05:55;12.70;95.50
73572;DHT22;61854;48.510;-2.770;2023-05-01T02:08:20;12.70;95.70
73572;DHT22;61854;48.510;-2.770;2023-05-01T02:10:47;12.60;95.80
73572;DHT22;61854;48.510;-2.770;2023-05-01T02:13:15;12.60;96.10
73572;DHT22;61854;48.510;-2.770;2023-05-01T02:15:41;12.60;96.30
73572;DHT22;61854;48.510;-2.770;2023-05-01T02:18:09;12.60;96.50
73572;DHT22;61854;48.510;-2.770;2023-05-01T02:20:35;12.60;96.70
73572;DHT22;61854;48.510;-2.770;2023-05-01T02:23:01;12.50;97.00
73572;DHT22;61854;48.510;-2.770;2023-05-01T02:25:28;12.50;97.20
73572;DHT22;61854;48.510;-2.770;2023-05-01T02:27:56;12.50;97.50
73572;DHT22;61854;48.510;-2.770;2023-05-01T02:30:24;12.60;97.60
73572;DHT22;61854;48.510;-2.770;2023-05-01T02:32:50;12.60;97.70
73572;DHT22;61854;48.510;-2.770;2023-05-01T02:35:15;12.70;97.70
73572;DHT22;61854;48.510;-2.770;2023-05-01T02:37:42;12.70;97.70
73572;DHT22;61854;48.510;-2.770;2023-05-01T02:40:08;12.80;97.70
73572;DHT22;61854;48.510;-2.770;2023-05-01T02:42:35;12.80;97.70
73572;DHT22;61854;48.510;-2.770;2023-05-01T02:45:02;12.90;97.60
73572;DHT22;61854;48.510;-2.770;2023-05-01T02:47:30;12.90;97.60
73572;DHT22;61854;48.510;-2.770;2023-05-01T02:49:56;12.90;97.50
73572;DHT22;61854;48.510;-2.770;2023-05-01T02:52:23;12.90;97.50
73572;DHT22;61854;48.510;-2.770;2023-05-01T02:54:48;12.90;97.50
73572;DHT22;61854;48.510;-2.770;2023-05-01T02:57:15;12.90;97.60
73572;DHT22;61854;48.510;-2.770;2023-05-01T02:59:41;12.90;97.60
73572;DHT22;61854;48.510;-2.770;2023-05-01T03:02:06;12.90;97.50
73572;DHT22;61854;48.510;-2.770;2023-05-01T03:04:32;12.90;97.40
73572;DHT22;61854;48.510;-2.770;2023-05-01T03:06:57;12.90;97.20
73572;DHT22;61854;48.510;-2.770;2023-05-01T03:09:23;12.90;97.10
73572;DHT22;61854;48.510;-2.770;2023-05-01T03:11:48;12.80;97.10
73572;DHT22;61854;48.510;-2.770;2023-05-01T03:14:14;12.80;97.00
73572;DHT22;61854;48.510;-2.770;2023-05-01T03:16:39;12.90;96.80
73572;DHT22;61854;48.510;-2.770;2023-05-01T03:19:05;12.90;96.60
73572;DHT22;61854;48.510;-2.770;2023-05-01T03:21:31;12.80;96.40
73572;DHT22;61854;48.510;-2.770;2023-05-01T03:23:58;12.70;96.60
73572;DHT22;61854;48.510;-2.770;2023-05-01T03:26:23;12.60;96.60
73572;DHT22;61854;48.510;-2.770;2023-05-01T03:28:49;12.60;96.70
73572;DHT22;61854;48.510;-2.770;2023-05-01T03:31:14;12.60;96.80
73572;DHT22;61854;48.510;-2.770;2023-05-01T03:33:40;12.50;96.90
73572;DHT22;61854;48.510;-2.770;2023-05-01T03:36:05;12.50;96.90
73572;DHT22;61854;48.510;-2.770;2023-05-01T03:38:31;12.40;97.00
73572;DHT22;61854;48.510;-2.770;2023-05-01T03:40:57;12.40;97.20
73572;DHT22;61854;48.510;-2.770;2023-05-01T03:43:23;12.40;97.40
73572;DHT22;61854;48.510;-2.770;2023-05-01T03:45:48;12.40;97.60
73572;DHT22;61854;48.510;-2.770;2023-05-01T03:48:15;12.40;97.70
73572;DHT22;61854;48.510;-2.770;2023-05-01T03:50:40;12.40;97.70
73572;DHT22;61854;48.510;-2.770;2023-05-01T03:53:06;12.40;97.80
73572;DHT22;61854;48.510;-2.770;2023-05-01T03:55:32;12.50;97.80
73572;DHT22;61854;48.510;-2.770;2023-05-01T03:57:57;12.50;97.80
73572;DHT22;61854;48.510;-2.770;2023-05-01T04:00:23;12.50;97.90
73572;DHT22;61854;48.510;-2.770;2023-05-01T04:02:49;12.60;97.90
73572;DHT22;61854;48.510;-2.770;2023-05-01T04:05:14;12.60;97.80
73572;DHT22;61854;48.510;-2.770;2023-05-01T04:07:40;12.60;97.70
73572;DHT22;61854;48.510;-2.770;2023-05-01T04:10:05;12.60;97.60
73572;DHT22;61854;48.510;-2.770;2023-05-01T04:12:33;12.60;97.60
73572;DHT22;61854;48.510;-2.770;2023-05-01T04:14:59;12.60;97.60
73572;DHT22;61854;48.510;-2.770;2023-05-01T04:17:25;12.60;97.50
73572;DHT22;61854;48.510;-2.770;2023-05-01T04:19:50;12.60;97.50
73572;DHT22;61854;48.510;-2.770;2023-05-01T04:22:16;12.60;97.50
73572;DHT22;61854;48.510;-2.770;2023-05-01T04:24:42;12.60;97.50
73572;DHT22;61854;48.510;-2.770;2023-05-01T04:27:07;12.60;97.40
73572;DHT22;61854;48.510;-2.770;2023-05-01T04:29:33;12.70;97.30
73572;DHT22;61854;48.510;-2.770;2023-05-01T04:31:59;12.60;97.30
73572;DHT22;61854;48.510;-2.770;2023-05-01T04:34:24;12.60;97.50
73572;DHT22;61854;48.510;-2.770;2023-05-01T04:36:54;12.70;97.60
73572;DHT22;61854;48.510;-2.770;2023-05-01T04:39:19;12.70;97.60
73572;DHT22;61854;48.510;-2.770;2023-05-01T04:41:45;12.70;97.40
73572;DHT22;61854;48.510;-2.770;2023-05-01T04:44:10;12.70;97.40
73572;DHT22;61854;48.510;-2.770;2023-05-01T04:46:36;12.70;97.40
73572;DHT22;61854;48.510;-2.770;2023-05-01T04:49:01;12.70;97.30
73572;DHT22;61854;48.510;-2.770;2023-05-01T04:51:27;12.70;97.40
73572;DHT22;61854;48.510;-2.770;2023-05-01T04:53:53;12.70;97.40
73572;DHT22;61854;48.510;-2.770;2023-05-01T04:56:19;12.70;97.30
73572;DHT22;61854;48.510;-2.770;2023-05-01T04:58:45;12.70;97.30
73572;DHT22;61854;48.510;-2.770;2023-05-01T05:01:11;12.70;97.40
73572;DHT22;61854;48.510;-2.770;2023-05-01T05:03:36;12.70;97.80
73572;DHT22;61854;48.510;-2.770;2023-05-01T05:06:02;12.70;97.30
73572;DHT22;61854;48.510;-2.770;2023-05-01T05:08:28;12.70;97.30
73572;DHT22;61854;48.510;-2.770;2023-05-01T05:10:57;12.80;97.10
73572;DHT22;61854;48.510;-2.770;2023-05-01T05:13:23;12.70;97.10
73572;DHT22;61854;48.510;-2.770;2023-05-01T05:15:49;12.70;96.90
73572;DHT22;61854;48.510;-2.770;2023-05-01T05:18:14;12.80;96.90
73572;DHT22;61854;48.510;-2.770;2023-05-01T05:20:39;12.80;96.90
73572;DHT22;61854;48.510;-2.770;2023-05-01T05:23:05;12.80;96.80
73572;DHT22;61854;48.510;-2.770;2023-05-01T05:25:31;12.80;96.60
73572;DHT22;61854;48.510;-2.770;2023-05-01T05:27:57;12.80;96.40
73572;DHT22;61854;48.510;-2.770;2023-05-01T05:30:23;12.80;96.20
73572;DHT22;61854;48.510;-2.770;2023-05-01T05:32:49;12.90;96.00
73572;DHT22;61854;48.510;-2.770;2023-05-01T05:35:15;12.80;95.90
73572;DHT22;61854;48.510;-2.770;2023-05-01T05:37:40;12.90;95.80
73572;DHT22;61854;48.510;-2.770;2023-05-01T05:40:06;12.90;95.70
73572;DHT22;61854;48.510;-2.770;2023-05-01T05:42:32;12.90;95.60
73572;DHT22;61854;48.510;-2.770;2023-05-01T05:44:58;12.90;95.60
73572;DHT22;61854;48.510;-2.770;2023-05-01T05:47:23;12.90;95.60
73572;DHT22;61854;48.510;-2.770;2023-05-01T05:49:49;12.90;95.60
73572;DHT22;61854;48.510;-2.770;2023-05-01T05:52:15;12.90;95.50
73572;DHT22;61854;48.510;-2.770;2023-05-01T05:54:40;12.90;95.50
73572;DHT22;61854;48.510;-2.770;2023-05-01T05:57:06;13.00;95.60
73572;DHT22;61854;48.510;-2.770;2023-05-01T05:59:31;13.00;95.50
73572;DHT22;61854;48.510;-2.770;2023-05-01T06:01:57;13.00;95.30
73572;DHT22;61854;48.510;-2.770;2023-05-01T06:04:23;13.00;95.30
73572;DHT22;61854;48.510;-2.770;2023-05-01T06:06:48;13.10;95.40
73572;DHT22;61854;48.510;-2.770;2023-05-01T06:09:14;13.20;95.10
73572;DHT22;61854;48.510;-2.770;2023-05-01T06:11:41;13.30;94.80
73572;DHT22;61854;48.510;-2.770;2023-05-01T06:14:07;13.30;94.50
73572;DHT22;61854;48.510;-2.770;2023-05-01T06:16:32;13.30;94.30
73572;DHT22;61854;48.510;-2.770;2023-05-01T06:18:58;13.20;94.40
73572;DHT22;61854;48.510;-2.770;2023-05-01T06:21:24;13.20;94.20
73572;DHT22;61854;48.510;-2.770;2023-05-01T06:23:50;13.20;94.20
73572;DHT22;61854;48.510;-2.770;2023-05-01T06:26:16;13.20;94.30
73572;DHT22;61854;48.510;-2.770;2023-05-01T06:28:42;13.10;94.40
73572;DHT22;61854;48.510;-2.770;2023-05-01T06:31:07;13.10;94.30
73572;DHT22;61854;48.510;-2.770;2023-05-01T06:33:33;13.10;94.40
73572;DHT22;61854;48.510;-2.770;2023-05-01T06:35:58;13.10;94.40
73572;DHT22;61854;48.510;-2.770;2023-05-01T06:38:24;13.20;94.30
73572;DHT22;61854;48.510;-2.770;2023-05-01T06:40:50;13.40;94.40
73572;DHT22;61854;48.510;-2.770;2023-05-01T06:43:15;13.60;93.60
73572;DHT22;61854;48.510;-2.770;2023-05-01T06:45:41;13.60;93.20
73572;DHT22;61854;48.510;-2.770;2023-05-01T06:48:07;13.60;93.10
73572;DHT22;61854;48.510;-2.770;2023-05-01T06:50:32;13.70;92.80
73572;DHT22;61854;48.510;-2.770;2023-05-01T06:52:58;13.70;92.70
73572;DHT22;61854;48.510;-2.770;2023-05-01T06:55:25;13.70;92.60
73572;DHT22;61854;48.510;-2.770;2023-05-01T06:57:51;13.70;92.60
73572;DHT22;61854;48.510;-2.770;2023-05-01T07:00:16;13.60;92.60
73572;DHT22;61854;48.510;-2.770;2023-05-01T07:02:45;13.60;92.50
73572;DHT22;61854;48.510;-2.770;2023-05-01T07:05:11;13.60;92.50
73572;DHT22;61854;48.510;-2.770;2023-05-01T07:07:37;13.70;92.60
73572;DHT22;61854;48.510;-2.770;2023-05-01T07:10:02;13.80;92.10
73572;DHT22;61854;48.510;-2.770;2023-05-01T07:12:28;13.80;91.80
73572;DHT22;61854;48.510;-2.770;2023-05-01T07:14:54;13.90;91.50
73572;DHT22;61854;48.510;-2.770;2023-05-01T07:17:21;13.80;91.40
73572;DHT22;61854;48.510;-2.770;2023-05-01T07:19:46;13.80;91.60
73572;DHT22;61854;48.510;-2.770;2023-05-01T07:22:12;13.70;91.90
73572;DHT22;61854;48.510;-2.770;2023-05-01T07:24:37;13.70;92.00
73572;DHT22;61854;48.510;-2.770;2023-05-01T07:27:03;13.70;92.20
73572;DHT22;61854;48.510;-2.770;2023-05-01T07:29:28;13.90;92.20
73572;DHT22;61854;48.510;-2.770;2023-05-01T07:31:54;14.10;91.90
73572;DHT22;61854;48.510;-2.770;2023-05-01T07:34:20;14.20;90.70
73572;DHT22;61854;48.510;-2.770;2023-05-01T07:36:45;14.20;90.30
73572;DHT22;61854;48.510;-2.770;2023-05-01T07:39:11;14.30;90.20
73572;DHT22;61854;48.510;-2.770;2023-05-01T07:41:38;14.50;88.60
73572;DHT22;61854;48.510;-2.770;2023-05-01T07:44:03;14.50;87.90
73572;DHT22;61854;48.510;-2.770;2023-05-01T07:46:28;14.50;87.30
73572;DHT22;61854;48.510;-2.770;2023-05-01T07:48:54;14.40;86.60
73572;DHT22;61854;48.510;-2.770;2023-05-01T07:51:20;14.50;87.10
73572;DHT22;61854;48.510;-2.770;2023-05-01T07:53:45;14.50;86.60
73572;DHT22;61854;48.510;-2.770;2023-05-01T07:56:12;14.50;85.90
73572;DHT22;61854;48.510;-2.770;2023-05-01T07:58:37;14.40;83.50
73572;DHT22;61854;48.510;-2.770;2023-05-01T08:01:05;14.40;82.90
73572;DHT22;61854;48.510;-2.770;2023-05-01T08:03:30;14.50;83.50
73572;DHT22;61854;48.510;-2.770;2023-05-01T08:05:57;14.60;82.70
73572;DHT22;61854;48.510;-2.770;2023-05-01T08:08:22;14.60;82.90
73572;DHT22;61854;48.510;-2.770;2023-05-01T08:10:49;14.70;83.80
73572;DHT22;61854;48.510;-2.770;2023-05-01T08:13:15;14.80;83.20
73572;DHT22;61854;48.510;-2.770;2023-05-01T08:15:40;14.80;80.70
73572;DHT22;61854;48.510;-2.770;2023-05-01T08:18:07;14.80;79.60
73572;DHT22;61854;48.510;-2.770;2023-05-01T08:20:34;14.90;80.80
73572;DHT22;61854;48.510;-2.770;2023-05-01T08:22:59;14.90;80.80
73572;DHT22;61854;48.510;-2.770;2023-05-01T08:25:25;15.00;79.50
73572;DHT22;61854;48.510;-2.770;2023-05-01T08:27:51;15.00;79.70
73572;DHT22;61854;48.510;-2.770;2023-05-01T08:30:16;15.10;79.70
73572;DHT22;61854;48.510;-2.770;2023-05-01T08:32:42;15.20;79.10
73572;DHT22;61854;48.510;-2.770;2023-05-01T08:35:07;15.20;78.20
73572;DHT22;61854;48.510;-2.770;2023-05-01T08:37:33;15.20;78.20
73572;DHT22;61854;48.510;-2.770;2023-05-01T08:39:59;15.10;79.10
73572;DHT22;61854;48.510;-2.770;2023-05-01T08:42:27;15.10;79.60
73572;DHT22;61854;48.510;-2.770;2023-05-01T08:44:53;15.10;77.90
73572;DHT22;61854;48.510;-2.770;2023-05-01T08:47:23;15.00;78.80
73572;DHT22;61854;48.510;-2.770;2023-05-01T08:49:48;15.10;78.10
73572;DHT22;61854;48.510;-2.770;2023-05-01T08:52:15;15.20;77.50
73572;DHT22;61854;48.510;-2.770;2023-05-01T08:54:42;15.30;76.50
73572;DHT22;61854;48.510;-2.770;2023-05-01T08:57:08;15.40;76.60
73572;DHT22;61854;48.510;-2.770;2023-05-01T08:59:35;15.40;76.10
73572;DHT22;61854;48.510;-2.770;2023-05-01T09:02:01;15.50;75.30
73572;DHT22;61854;48.510;-2.770;2023-05-01T09:04:33;15.50;75.30
73572;DHT22;61854;48.510;-2.770;2023-05-01T09:07:00;15.60;74.70
73572;DHT22;61854;48.510;-2.770;2023-05-01T09:09:26;15.60;75.10
73572;DHT22;61854;48.510;-2.770;2023-05-01T09:11:54;15.60;75.00
73572;DHT22;61854;48.510;-2.770;2023-05-01T09:14:21;15.70;75.00
73572;DHT22;61854;48.510;-2.770;2023-05-01T09:16:47;15.70;74.10
73572;DHT22;61854;48.510;-2.770;2023-05-01T09:19:13;15.70;74.60
73572;DHT22;61854;48.510;-2.770;2023-05-01T09:21:38;15.60;74.90
73572;DHT22;61854;48.510;-2.770;2023-05-01T09:24:04;15.60;75.10
73572;DHT22;61854;48.510;-2.770;2023-05-01T09:26:30;15.50;75.60
73572;DHT22;61854;48.510;-2.770;2023-05-01T09:28:55;15.40;76.10
73572;DHT22;61854;48.510;-2.770;2023-05-01T09:31:23;15.50;76.60
73572;DHT22;61854;48.510;-2.770;2023-05-01T09:33:53;15.50;76.60
73572;DHT22;61854;48.510;-2.770;2023-05-01T09:36:18;15.50;76.60
73572;DHT22;61854;48.510;-2.770;2023-05-01T09:38:44;15.50;76.10
73572;DHT22;61854;48.510;-2.770;2023-05-01T09:41:10;15.50;76.00
73572;DHT22;61854;48.510;-2.770;2023-05-01T09:43:35;15.60;75.20
73572;DHT22;61854;48.510;-2.770;2023-05-01T09:46:08;15.60;75.20
73572;DHT22;61854;48.510;-2.770;2023-05-01T09:48:34;15.70;75.50
73572;DHT22;61854;48.510;-2.770;2023-05-01T09:51:00;15.90;73.60
73572;DHT22;61854;48.510;-2.770;2023-05-01T09:53:32;15.90;74.10
73572;DHT22;61854;48.510;-2.770;2023-05-01T09:56:00;16.00;72.80
73572;DHT22;61854;48.510;-2.770;2023-05-01T09:58:27;16.10;72.20
73572;DHT22;61854;48.510;-2.770;2023-05-01T10:00:52;16.10;71.90
73572;DHT22;61854;48.510;-2.770;2023-05-01T10:03:18;16.10;72.60
73572;DHT22;61854;48.510;-2.770;2023-05-01T10:05:43;16.10;72.50
73572;DHT22;61854;48.510;-2.770;2023-05-01T10:08:09;16.00;73.10
73572;DHT22;61854;48.510;-2.770;2023-05-01T10:10:42;16.00;73.60
73572;DHT22;61854;48.510;-2.770;2023-05-01T10:13:12;16.00;74.30
73572;DHT22;61854;48.510;-2.770;2023-05-01T10:15:38;16.00;74.30
73572;DHT22;61854;48.510;-2.770;2023-05-01T10:18:04;16.00;74.30
73572;DHT22;61854;48.510;-2.770;2023-05-01T10:20:30;16.00;73.20
73572;DHT22;61854;48.510;-2.770;2023-05-01T10:22:58;16.20;72.50
73572;DHT22;61854;48.510;-2.770;2023-05-01T10:25:23;16.20;71.90
73572;DHT22;61854;48.510;-2.770;2023-05-01T10:27:49;16.30;71.10
73572;DHT22;61854;48.510;-2.770;2023-05-01T10:30:15;16.40;71.30
73572;DHT22;61854;48.510;-2.770;2023-05-01T10:32:41;16.50;70.80
73572;DHT22;61854;48.510;-2.770;2023-05-01T10:35:11;16.50;70.90
73572;DHT22;61854;48.510;-2.770;2023-05-01T10:37:48;16.50;70.50
73572;DHT22;61854;48.510;-2.770;2023-05-01T10:43:11;16.70;69.80
73572;DHT22;61854;48.510;-2.770;2023-05-01T10:45:37;16.70;70.10
73572;DHT22;61854;48.510;-2.770;2023-05-01T10:48:03;16.70;69.40
73572;DHT22;61854;48.510;-2.770;2023-05-01T10:50:28;16.50;69.40
73572;DHT22;61854;48.510;-2.770;2023-05-01T10:55:39;16.50;69.10
73572;DHT22;61854;48.510;-2.770;2023-05-01T10:58:07;16.70;68.80
73572;DHT22;61854;48.510;-2.770;2023-05-01T11:00:33;16.80;67.80
73572;DHT22;61854;48.510;-2.770;2023-05-01T11:08:30;16.70;69.50
73572;DHT22;61854;48.510;-2.770;2023-05-01T11:10:56;16.60;69.50
73572;DHT22;61854;48.510;-2.770;2023-05-01T11:14:05;16.70;69.00
73572;DHT22;61854;48.510;-2.770;2023-05-01T11:18:55;16.90;67.50
73572;DHT22;61854;48.510;-2.770;2023-05-01T11:21:27;16.80;68.00
73572;DHT22;61854;48.510;-2.770;2023-05-01T11:23:53;16.90;69.50
73572;DHT22;61854;48.510;-2.770;2023-05-01T11:26:18;16.90;70.20
73572;DHT22;61854;48.510;-2.770;2023-05-01T11:28:46;17.00;69.50
73572;DHT22;61854;48.510;-2.770;2023-05-01T11:31:16;17.10;68.00
73572;DHT22;61854;48.510;-2.770;2023-05-01T11:33:42;17.10;67.90
73572;DHT22;61854;48.510;-2.770;2023-05-01T11:36:07;17.20;67.00
73572;DHT22;61854;48.510;-2.770;2023-05-01T11:38:33;17.30;68.30
73572;DHT22;61854;48.510;-2.770;2023-05-01T11:40:59;17.20;67.70
73572;DHT22;61854;48.510;-2.770;2023-05-01T11:43:25;17.20;67.50
73572;DHT22;61854;48.510;-2.770;2023-05-01T11:45:51;17.20;68.00
73572;DHT22;61854;48.510;-2.770;2023-05-01T11:48:18;17.20;67.50
73572;DHT22;61854;48.510;-2.770;2023-05-01T11:50:45;17.20;66.20
73572;DHT22;61854;48.510;-2.770;2023-05-01T11:53:11;17.10;66.30
73572;DHT22;61854;48.510;-2.770;2023-05-01T11:55:38;17.00;68.30
73572;DHT22;61854;48.510;-2.770;2023-05-01T11:58:04;17.00;70.30
73572;DHT22;61854;48.510;-2.770;2023-05-01T12:00:33;16.90;70.70
73572;DHT22;61854;48.510;-2.770;2023-05-01T12:03:02;16.90;69.20
73572;DHT22;61854;48.510;-2.770;2023-05-01T12:05:29;16.90;66.80
73572;DHT22;61854;48.510;-2.770;2023-05-01T12:10:40;17.10;65.50
73572;DHT22;61854;48.510;-2.770;2023-05-01T12:13:06;17.30;66.00
73572;DHT22;61854;48.510;-2.770;2023-05-01T12:15:36;17.20;66.10
73572;DHT22;61854;48.510;-2.770;2023-05-01T12:18:02;17.30;65.70
73572;DHT22;61854;48.510;-2.770;2023-05-01T12:23:04;17.10;62.20
73572;DHT22;61854;48.510;-2.770;2023-05-01T12:25:30;17.10;62.30
73572;DHT22;61854;48.510;-2.770;2023-05-01T12:27:56;17.30;62.30
73572;DHT22;61854;48.510;-2.770;2023-05-01T12:30:25;17.60;62.90
73572;DHT22;61854;48.510;-2.770;2023-05-01T12:32:55;17.80;61.50
73572;DHT22;61854;48.510;-2.770;2023-05-01T12:35:20;17.80;62.10
73572;DHT22;61854;48.510;-2.770;2023-05-01T12:37:46;17.60;62.80
73572;DHT22;61854;48.510;-2.770;2023-05-01T12:40:12;17.60;63.00
73572;DHT22;61854;48.510;-2.770;2023-05-01T12:42:38;17.70;63.50
73572;DHT22;61854;48.510;-2.770;2023-05-01T12:45:03;17.90;61.40
73572;DHT22;61854;48.510;-2.770;2023-05-01T12:47:35;18.20;60.50
73572;DHT22;61854;48.510;-2.770;2023-05-01T12:50:02;18.30;60.30
73572;DHT22;61854;48.510;-2.770;2023-05-01T12:52:27;18.30;61.20
73572;DHT22;61854;48.510;-2.770;2023-05-01T12:55:00;18.30;61.30
73572;DHT22;61854;48.510;-2.770;2023-05-01T12:57:25;18.40;60.40
73572;DHT22;61854;48.510;-2.770;2023-05-01T12:59:56;18.60;59.90
73572;DHT22;61854;48.510;-2.770;2023-05-01T13:02:27;18.80;59.30
73572;DHT22;61854;48.510;-2.770;2023-05-01T13:05:01;19.00;58.90
73572;DHT22;61854;48.510;-2.770;2023-05-01T13:07:29;19.00;61.10
73572;DHT22;61854;48.510;-2.770;2023-05-01T13:09:55;19.30;62.80
73572;DHT22;61854;48.510;-2.770;2023-05-01T13:12:22;19.40;63.40
73572;DHT22;61854;48.510;-2.770;2023-05-01T13:14:48;19.40;63.60
73572;DHT22;61854;48.510;-2.770;2023-05-01T13:17:21;19.20;62.80
73572;DHT22;61854;48.510;-2.770;2023-05-01T13:19:51;18.90;64.90
73572;DHT22;61854;48.510;-2.770;2023-05-01T13:22:18;18.80;66.10
73572;DHT22;61854;48.510;-2.770;2023-05-01T13:24:52;18.90;65.90
73572;DHT22;61854;48.510;-2.770;2023-05-01T13:27:19;19.40;66.30
73572;DHT22;61854;48.510;-2.770;2023-05-01T13:29:50;19.80;63.10
73572;DHT22;61854;48.510;-2.770;2023-05-01T13:32:17;19.80;62.70
73572;DHT22;61854;48.510;-2.770;2023-05-01T13:34:42;19.80;62.70
73572;DHT22;61854;48.510;-2.770;2023-05-01T13:37:11;19.60;62.00
73572;DHT22;61854;48.510;-2.770;2023-05-01T13:39:41;19.40;62.20
73572;DHT22;61854;48.510;-2.770;2023-05-01T13:42:07;19.20;62.90
73572;DHT22;61854;48.510;-2.770;2023-05-01T13:44:41;19.10;62.80
73572;DHT22;61854;48.510;-2.770;2023-05-01T13:47:06;18.80;63.40
73572;DHT22;61854;48.510;-2.770;2023-05-01T13:49:32;18.40;64.90
73572;DHT22;61854;48.510;-2.770;2023-05-01T13:51:57;18.20;66.70
73572;DHT22;61854;48.510;-2.770;2023-05-01T13:54:23;18.10;67.60
73572;DHT22;61854;48.510;-2.770;2023-05-01T13:56:48;18.40;67.50
73572;DHT22;61854;48.510;-2.770;2023-05-01T13:59:14;18.80;65.90
73572;DHT22;61854;48.510;-2.770;2023-05-01T14:01:41;19.00;64.40
73572;DHT22;61854;48.510;-2.770;2023-05-01T14:04:12;18.90;63.80
73572;DHT22;61854;48.510;-2.770;2023-05-01T14:06:40;18.90;64.20
73572;DHT22;61854;48.510;-2.770;2023-05-01T14:09:07;19.00;63.10
73572;DHT22;61854;48.510;-2.770;2023-05-01T14:11:32;19.20;63.30
73572;DHT22;61854;48.510;-2.770;2023-05-01T14:13:58;19.50;61.30
73572;DHT22;61854;48.510;-2.770;2023-05-01T14:16:25;19.60;61.20
73572;DHT22;61854;48.510;-2.770;2023-05-01T14:18:53;19.40;62.20
73572;DHT22;61854;48.510;-2.770;2023-05-01T14:21:21;19.30;63.00
73572;DHT22;61854;48.510;-2.770;2023-05-01T14:23:48;19.40;63.20
73572;DHT22;61854;48.510;-2.770;2023-05-01T14:26:16;19.80;60.90
73572;DHT22;61854;48.510;-2.770;2023-05-01T14:28:43;19.90;60.90
73572;DHT22;61854;48.510;-2.770;2023-05-01T14:33:54;19.60;63.40
73572;DHT22;61854;48.510;-2.770;2023-05-01T14:36:19;19.50;63.10
73572;DHT22;61854;48.510;-2.770;2023-05-01T14:38:45;19.40;64.00
73572;DHT22;61854;48.510;-2.770;2023-05-01T14:41:13;19.30;64.10
73572;DHT22;61854;48.510;-2.770;2023-05-01T14:43:41;19.00;65.40
73572;DHT22;61854;48.510;-2.770;2023-05-01T14:46:10;18.80;66.80
73572;DHT22;61854;48.510;-2.770;2023-05-01T14:48:36;18.80;67.60
73572;DHT22;61854;48.510;-2.770;2023-05-01T14:51:08;18.80;67.40
73572;DHT22;61854;48.510;-2.770;2023-05-01T14:53:34;18.80;66.70
73572;DHT22;61854;48.510;-2.770;2023-05-01T14:56:00;18.90;66.90
73572;DHT22;61854;48.510;-2.770;2023-05-01T14:58:25;19.60;67.10
73572;DHT22;61854;48.510;-2.770;2023-05-01T15:00:51;20.20;62.60
73572;DHT22;61854;48.510;-2.770;2023-05-01T15:03:16;20.30;61.20
73572;DHT22;61854;48.510;-2.770;2023-05-01T15:05:42;20.10;60.90
73572;DHT22;61854;48.510;-2.770;2023-05-01T15:08:09;19.70;62.30
73572;DHT22;61854;48.510;-2.770;2023-05-01T15:10:35;19.40;62.40
73572;DHT22;61854;48.510;-2.770;2023-05-01T15:13:01;19.00;64.40
73572;DHT22;61854;48.510;-2.770;2023-05-01T15:15:27;18.70;65.50
73572;DHT22;61854;48.510;-2.770;2023-05-01T15:17:54;18.50;66.70
73572;DHT22;61854;48.510;-2.770;2023-05-01T15:20:19;18.40;67.90
73572;DHT22;61854;48.510;-2.770;2023-05-01T15:22:45;18.40;67.80
73572;DHT22;61854;48.510;-2.770;2023-05-01T15:25:11;18.20;68.70
73572;DHT22;61854;48.510;-2.770;2023-05-01T15:27:37;18.10;69.10
73572;DHT22;61854;48.510;-2.770;2023-05-01T15:30:03;18.10;69.40
73572;DHT22;61854;48.510;-2.770;2023-05-01T15:32:29;18.30;68.90
73572;DHT22;61854;48.510;-2.770;2023-05-01T15:34:55;19.00;66.30
73572;DHT22;61854;48.510;-2.770;2023-05-01T15:37:21;19.90;61.00
73572;DHT22;61854;48.510;-2.770;2023-05-01T15:39:49;21.00;57.50
73572;DHT22;61854;48.510;-2.770;2023-05-01T15:42:14;21.90;54.00
73572;DHT22;61854;48.510;-2.770;2023-05-01T15:44:40;22.40;50.50